• vieta
  • image
  • image
  • image
mod_vvisit_countermod_vvisit_countermod_vvisit_countermod_vvisit_countermod_vvisit_countermod_vvisit_counter
mod_vvisit_counterŠiandien161
mod_vvisit_counterVakar942
mod_vvisit_counterŠią savaitę4570
mod_vvisit_counterPraėjusią savaitę6203
mod_vvisit_counterŠį mėnesį17266
mod_vvisit_counterPraėjusį mėnesį16929
mod_vvisit_counterViso980192

Mes turime: 17 svečius, 1 bots online
Jūsų IP: 54.156.51.193
 , 
Šiandien: Rugs 23, 2018
Oro uostas / Naujienos / 2017 Kovas

2017 Kovo 11

2017KOV11 LT

Šiandien

Sekmadienis, 23 Rugsėjis 2018

Orų prognozė aviacijai

[source: ADDS]
METAR
EYSA 230120Z AUTO 20009KT 9999 BKN095/// BKN150/// BKN190/// 08/07 Q1007 =
TAF EYSA 222309Z 2300/2309 23014KT 9000 BKN025 TEMPO 2300/2303 5000 -TSRA SCT005 BKN015CB TEMPO 2303/2309 3000 TSRA SCT005 BKN015CB
TAF
TAF EYSA 222309Z 2300/2309 23014KT 9000 BKN025 TEMPO 2300/2303 5000 -TSRA SCT005 BKN015CB TEMPO 2303/2309 3000 TSRA SCT005 BKN015CB =
SR / SS: 04:15 / 16:24 UTC (EYSA 2018-09-23)

Paieška

Lankytojai

Mes turime 18 svečius online

tic logo lt